This is the latest recevied weather packets stored in our database for station/object SP6FIG-13. If no packets are shown the sender has not sent any weather packets the latest 10 day(s).
| Time | Temp. | Humidity | Pressure | Rain* | Wind** | Luminosity | Snow |
|---|---|---|---|---|---|---|---|
| 1777463358 | 17.78° C | 24% | 1029.3 hPa | - | - | - | - |
| 1777463058 | 17.78° C | 24% | 1029.2 hPa | - | - | - | - |
| 1777462758 | 18.33° C | 24% | 1029.5 hPa | - | - | - | - |
| 1777462458 | 18.33° C | 25% | 1029.8 hPa | - | - | - | - |
| 1777462158 | 18.89° C | 32% | 1031.1 hPa | - | - | - | - |
| 1777461858 | 20° C | 39% | 1028.6 hPa | - | - | - | - |
| 1777461558 | 20° C | 41% | 1028.8 hPa | - | - | - | - |
| 1777461258 | 20° C | 39% | 1028.5 hPa | - | - | - | - |
| 1777460958 | 20° C | 37% | 1029 hPa | - | - | - | - |
| 1777460658 | 20° C | 34% | 1028.8 hPa | - | - | - | - |
| 1777460358 | 20° C | 32% | 1028.5 hPa | - | - | - | - |
| 1777460058 | 20° C | 34% | 1028.2 hPa | - | - | - | - |
| 1777459758 | 19.44° C | 33% | 1028.7 hPa | - | - | - | - |
| 1777459458 | 19.44° C | 32% | 1029.4 hPa | - | - | - | - |
| 1777459158 | 20° C | 35% | 1028.5 hPa | - | - | - | - |
| 1777458857 | 20° C | 32% | 1028.8 hPa | - | - | - | - |
| 1777458558 | 20° C | 33% | 1028.9 hPa | - | - | - | - |
| 1777458258 | 20° C | 34% | 1028.9 hPa | - | - | - | - |
| 1777457957 | 20° C | 33% | 1028.8 hPa | - | - | - | - |
| 1777457658 | 20° C | 34% | 1028 hPa | - | - | - | - |
| 1777457358 | 19.44° C | 33% | 1029.2 hPa | - | - | - | - |
| 1777457058 | 19.44° C | 34% | 1028.9 hPa | - | - | - | - |
| 1777456758 | 19.44° C | 34% | 1029.2 hPa | - | - | - | - |
| 1777456458 | 19.44° C | 34% | 1028.6 hPa | - | - | - | - |
| 1777456157 | 19.44° C | 34% | 1029.2 hPa | - | - | - | - |
* Rain since midnight (hover to see other rain measurements)
** Current wind speed in m/s (hover to see current wind gust speed)